Time;durP1;ratioP1;P1;durP2;ratioP2;P2;SDS_P1;SDS_P2;PMS_P1;PMS_P2;Temp;Humidity;BMP_temperature;BMP_pressure;BME280_temperature;BME280_humidity;BME280_pressure;Samples;Min_cycle;Max_cycle;Signal;HPM_P1;HPM_P2
2022/07/05 00:01:41;;;;;;;;;;;;;;;;;;5045737;28;19927;-82
2022/07/05 00:04:06;;;;;;;;;;;;;;;;;;5041877;28;20294;-82
2022/07/05 00:06:32;;;;;;;;;;;;;;;;;;5039413;28;19945;-81
2022/07/05 00:08:57;;;;;;;;;;;;;;;;;;5039304;28;19935;-81
2022/07/05 00:11:22;;;;;;;;;;;;;;;;;;5043226;28;19921;-82
2022/07/05 00:13:47;;;;;;;;;;;;;;;;;;5038478;28;19920;-81
2022/07/05 00:16:12;;;;;;;;;;;;;;;;;;5038973;28;19912;-81
2022/07/05 00:18:37;;;;;;;;;;;;;;;;;;5038009;28;20321;-81
2022/07/05 00:21:03;;;;;;;;;;;;;;;;;;5047114;28;19916;-81
2022/07/05 00:23:28;;;;;;;;;;;;;;;;;;5047606;28;19939;-82
2022/07/05 00:25:53;;;;;;;;;;;;;;;;;;5043702;28;19917;-81
2022/07/05 00:28:18;;;;;;;;;;;;;;;;;;5042773;28;20054;-81
2022/07/05 00:30:43;;;;;;;;;;;;;;;;;;5045368;28;20367;-82
2022/07/05 00:33:08;;;;;;;;;;;;;;;;;;5043302;28;19923;-81
2022/07/05 00:35:34;;;;;;;;;;;;;;;;;;5042943;28;19920;-82
2022/07/05 00:37:59;;;;;;;;;;;;;;;;;;5046302;28;19917;-81
2022/07/05 00:40:24;;;;;;;;;;;;;;;;;;5044680;28;20363;-81
2022/07/05 00:42:49;;;;;;;;;;;;;;;;;;5042856;28;19928;-81
2022/07/05 00:45:14;;;;;;;;;;;;;;;;;;5025813;28;19913;-81
2022/07/05 00:47:40;;;;;;;;;;;;;;;;;;5045726;28;19923;-81
2022/07/05 00:50:05;;;;;;;;;;;;;;;;;;5042632;28;19916;-81
2022/07/05 00:52:30;;;;;;;;;;;;;;;;;;5043115;28;19917;-82
2022/07/05 00:54:55;;;;;;;;;;;;;;;;;;5037998;28;19913;-82
2022/07/05 00:57:20;;;;;;;;;;;;;;;;;;5043767;28;19979;-81
2022/07/05 00:59:45;;;;;;;;;;;;;;;;;;5043903;28;19999;-81
2022/07/05 01:02:11;;;;;;;;;;;;;;;;;;5027045;28;19917;-82
2022/07/05 01:04:36;;;;;;;;;;;;;;;;;;5027876;28;19967;-82
2022/07/05 01:07:03;;;;;;;;;;;;;;;;;;5045134;28;20378;-81
2022/07/05 01:09:28;;;;;;;;;;;;;;;;;;5044098;28;19979;-81
2022/07/05 01:11:54;;;;;;;;;;;;;;;;;;5045396;28;19921;-81
2022/07/05 01:14:19;;;;;;;;;;;;;;;;;;5044566;28;20338;-81
2022/07/05 01:16:44;;;;;;;;;;;;;;;;;;5045189;28;20252;-82
2022/07/05 01:19:09;;;;;;;;;;;;;;;;;;5024399;28;19925;-81
2022/07/05 01:21:35;;;;;;;;;;;;;;;;;;5046233;28;19916;-81
2022/07/05 01:24:00;;;;;;;;;;;;;;;;;;5043279;28;21195;-82
2022/07/05 01:26:25;;;;;;;;;;;;;;;;;;5046513;28;19924;-82
2022/07/05 01:28:50;;;;;;;;;;;;;;;;;;5045799;28;19913;-81
2022/07/05 01:31:16;;;;;;;;;;;;;;;;;;5040938;28;19913;-81
2022/07/05 01:33:41;;;;;;;;;;;;;;;;;;5046128;28;20535;-81
2022/07/05 01:36:06;;;;;;;;;;;;;;;;;;5045296;28;20337;-81
2022/07/05 01:38:31;;;;;;;;;;;;;;;;;;5044305;28;20315;-81
2022/07/05 01:40:56;;;;;;;;;;;;;;;;;;5042071;28;19916;-81
2022/07/05 01:43:21;;;;;;;;;;;;;;;;;;5043418;28;19927;-81
2022/07/05 01:45:47;;;;;;;;;;;;;;;;;;5042567;28;19920;-81
2022/07/05 01:48:12;;;;;;;;;;;;;;;;;;5042639;28;19970;-81
2022/07/05 01:50:37;;;;;;;;;;;;;;;;;;5046801;28;20382;-82
2022/07/05 01:53:02;;;;;;;;;;;;;;;;;;5040715;28;20412;-81
2022/07/05 01:55:27;;;;;;;;;;;;;;;;;;5041990;28;19912;-81
2022/07/05 01:57:53;;;;;;;;;;;;;;;;;;5044369;28;19913;-81
2022/07/05 02:00:18;;;;;;;;;;;;;;;;;;5043207;28;19916;-81
2022/07/05 02:02:43;;;;;;;;;;;;;;;;;;5044575;28;19921;-82
2022/07/05 02:05:08;;;;;;;;;;;;;;;;;;5043757;28;20344;-81
2022/07/05 02:07:33;;;;;;;;;;;;;;;;;;5039216;28;19920;-81
2022/07/05 02:09:58;;;;;;;;;;;;;;;;;;5044865;28;20316;-81
2022/07/05 02:12:24;;;;;;;;;;;;;;;;;;5043164;28;19928;-81
2022/07/05 02:14:49;;;;;;;;;;;;;;;;;;5039311;28;19914;-82
2022/07/05 02:17:14;;;;;;;;;;;;;;;;;;5038830;28;19913;-81
2022/07/05 02:19:39;;;;;;;;;;;;;;;;;;5043216;28;19928;-81
2022/07/05 02:22:04;;;;;;;;;;;;;;;;;;5040157;28;19995;-81
2022/07/05 02:24:30;;;;;;;;;;;;;;;;;;5040389;28;19914;-81
2022/07/05 02:26:55;;;;;;;;;;;;;;;;;;5040222;28;20900;-81
2022/07/05 02:29:20;;;;;;;;;;;;;;;;;;5040360;28;20004;-81
2022/07/05 02:31:45;;;;;;;;;;;;;;;;;;5040162;28;19921;-81
2022/07/05 02:34:11;;;;;;;;;;;;;;;;;;5041981;28;19962;-81
2022/07/05 02:36:36;;;;;;;;;;;;;;;;;;5023355;28;19912;-81
2022/07/05 02:39:01;;;;;;;;;;;;;;;;;;5042365;28;20431;-81
2022/07/05 02:41:26;;;;;;;;;;;;;;;;;;5042710;28;19924;-81
2022/07/05 02:43:52;;;;;;;;;;;;;;;;;;5038872;28;19920;-82
2022/07/05 02:46:17;;;;;;;;;;;;;;;;;;5035775;28;19920;-82
2022/07/05 02:48:42;;;;;;;;;;;;;;;;;;5040887;28;19917;-82
2022/07/05 02:51:07;;;;;;;;;;;;;;;;;;5039148;28;19917;-81
2022/07/05 02:53:34;;;;;;;;;;;;;;;;;;5037173;22;19925;-85
2022/07/05 02:55:59;;;;;;;;;;;;;;;;;;4999326;28;19929;-86
2022/07/05 02:58:24;;;;;;;;;;;;;;;;;;5000860;28;19921;-86
2022/07/05 03:00:49;;;;;;;;;;;;;;;;;;5000109;28;19983;-86
2022/07/05 03:03:15;;;;;;;;;;;;;;;;;;5000964;28;20304;-86
2022/07/05 03:05:40;;;;;;;;;;;;;;;;;;4994349;28;19944;-86
2022/07/05 03:08:05;;;;;;;;;;;;;;;;;;5000278;28;20017;-86
2022/07/05 03:10:30;;;;;;;;;;;;;;;;;;4998681;28;20021;-85
2022/07/05 03:12:55;;;;;;;;;;;;;;;;;;4997295;28;19937;-85
2022/07/05 03:15:20;;;;;;;;;;;;;;;;;;5000716;28;20058;-86
2022/07/05 03:17:46;;;;;;;;;;;;;;;;;;4995910;28;20009;-86
2022/07/05 03:20:11;;;;;;;;;;;;;;;;;;5003134;28;20004;-85
2022/07/05 03:22:36;;;;;;;;;;;;;;;;;;4994551;28;19914;-85
2022/07/05 03:25:02;;;;;;;;;;;;;;;;;;5000944;28;20374;-87
2022/07/05 03:27:27;;;;;;;;;;;;;;;;;;5001892;28;19914;-86
2022/07/05 03:29:55;;;;;;;;;;;;;;;;;;4999024;28;19944;-85
2022/07/05 03:32:20;;;;;;;;;;;;;;;;;;4999212;28;20353;-86
2022/07/05 03:34:45;;;;;;;;;;;;;;;;;;4999354;28;21518;-85
2022/07/05 03:37:10;;;;;;;;;;;;;;;;;;5001134;28;19918;-86
2022/07/05 03:39:35;;;;;;;;;;;;;;;;;;5000549;28;19917;-86
2022/07/05 03:42:00;;;;;;;;;;;;;;;;;;4997945;28;19925;-85
2022/07/05 03:44:26;;;;;;;;;;;;;;;;;;4998878;28;19925;-85
2022/07/05 03:46:52;;;;;;;;;;;;;;;;;;4999251;28;19921;-85
2022/07/05 03:49:17;;;;;;;;;;;;;;;;;;5003003;28;19918;-85
2022/07/05 03:51:42;;;;;;;;;;;;;;;;;;5004198;28;19928;-85
2022/07/05 03:54:07;;;;;;;;;;;;;;;;;;5006713;28;19924;-86
2022/07/05 03:56:32;;;;;;;;;;;;;;;;;;5003697;28;20421;-86
2022/07/05 03:58:57;;;;;;;;;;;;;;;;;;5006601;28;19917;-85
2022/07/05 04:01:23;;;;;;;;;;;;;;;;;;5003668;28;19927;-85
2022/07/05 04:03:48;;;;;;;;;;;;;;;;;;5005299;28;19932;-85
2022/07/05 04:06:13;;;;;;;;;;;;;;;;;;5006825;28;20385;-86
2022/07/05 04:08:38;;;;;;;;;;;;;;;;;;5001978;28;20292;-86
2022/07/05 04:11:03;;;;;;;;;;;;;;;;;;5007281;28;19913;-86
2022/07/05 04:13:29;;;;;;;;;;;;;;;;;;4999932;28;19914;-85
2022/07/05 04:15:55;;;;;;;;;;;;;;;;;;5002778;28;20279;-85
2022/07/05 04:18:20;;;;;;;;;;;;;;;;;;4999882;28;19914;-85
2022/07/05 04:20:45;;;;;;;;;;;;;;;;;;5003363;28;19924;-86
2022/07/05 04:23:10;;;;;;;;;;;;;;;;;;4997374;28;20371;-85
2022/07/05 04:25:36;;;;;;;;;;;;;;;;;;5004136;28;20004;-85
2022/07/05 04:28:01;;;;;;;;;;;;;;;;;;5001408;28;20268;-85
2022/07/05 04:30:26;;;;;;;;;;;;;;;;;;4999178;28;20367;-85
2022/07/05 04:32:51;;;;;;;;;;;;;;;;;;4998810;28;19921;-86
2022/07/05 04:35:17;;;;;;;;;;;;;;;;;;5001553;28;19913;-85
2022/07/05 04:37:42;;;;;;;;;;;;;;;;;;5000893;28;19944;-85
2022/07/05 04:40:07;;;;;;;;;;;;;;;;;;5001088;28;20008;-85
2022/07/05 04:42:32;;;;;;;;;;;;;;;;;;4999842;28;19957;-85
2022/07/05 04:44:57;;;;;;;;;;;;;;;;;;4998677;28;20741;-86
2022/07/05 04:47:22;;;;;;;;;;;;;;;;;;4999327;28;19918;-85
2022/07/05 04:49:48;;;;;;;;;;;;;;;;;;5001807;28;19971;-86
2022/07/05 04:52:13;;;;;;;;;;;;;;;;;;5000401;28;19920;-86
2022/07/05 04:54:38;;;;;;;;;;;;;;;;;;4999777;28;19918;-86
2022/07/05 04:57:03;;;;;;;;;;;;;;;;;;4995583;28;20064;-86
2022/07/05 04:59:28;;;;;;;;;;;;;;;;;;4997510;28;20364;-86
2022/07/05 05:01:53;;;;;;;;;;;;;;;;;;5001483;28;19925;-86
2022/07/05 05:04:19;;;;;;;;;;;;;;;;;;4996813;28;20290;-86
2022/07/05 05:06:44;;;;;;;;;;;;;;;;;;4998840;28;19929;-86
2022/07/05 05:09:09;;;;;;;;;;;;;;;;;;5004271;28;19914;-86
2022/07/05 05:11:34;;;;;;;;;;;;;;;;;;5000679;28;19914;-86
2022/07/05 05:13:59;;;;;;;;;;;;;;;;;;5001751;28;19939;-86
2022/07/05 05:16:24;;;;;;;;;;;;;;;;;;4997733;28;19999;-86
2022/07/05 05:18:50;;;;;;;;;;;;;;;;;;5000906;28;19914;-86
2022/07/05 05:21:15;;;;;;;;;;;;;;;;;;5000484;28;19932;-86
2022/07/05 05:23:40;;;;;;;;;;;;;;;;;;5001734;28;19914;-86
2022/07/05 05:26:05;;;;;;;;;;;;;;;;;;5000999;28;19965;-86
2022/07/05 05:28:30;;;;;;;;;;;;;;;;;;5001241;28;19914;-85
2022/07/05 05:30:56;;;;;;;;;;;;;;;;;;4995658;28;20297;-87
2022/07/05 05:33:21;;;;;;;;;;;;;;;;;;5000814;28;20463;-86
2022/07/05 05:35:46;;;;;;;;;;;;;;;;;;4999828;28;19936;-86
2022/07/05 05:38:11;;;;;;;;;;;;;;;;;;5003188;28;20012;-86
2022/07/05 05:40:37;;;;;;;;;;;;;;;;;;5000543;28;20287;-86
2022/07/05 05:43:02;;;;;;;;;;;;;;;;;;4999834;28;19933;-86
2022/07/05 05:45:28;;;;;;;;;;;;;;;;;;4996622;28;19948;-86
2022/07/05 05:47:53;;;;;;;;;;;;;;;;;;5002811;28;19917;-87
2022/07/05 05:50:18;;;;;;;;;;;;;;;;;;5002363;28;19939;-86
2022/07/05 05:52:43;;;;;;;;;;;;;;;;;;5003701;28;19921;-87
2022/07/05 05:55:08;;;;;;;;;;;;;;;;;;4999855;28;19917;-87
2022/07/05 05:57:34;;;;;;;;;;;;;;;;;;4994456;28;19914;-87
2022/07/05 05:59:59;;;;;;;;;;;;;;;;;;4996424;28;20290;-87
2022/07/05 06:02:24;;;;;;;;;;;;;;;;;;5002449;28;19939;-86
2022/07/05 06:04:49;;;;;;;;;;;;;;;;;;5000418;28;19920;-87
2022/07/05 06:07:14;;;;;;;;;;;;;;;;;;4997580;28;19918;-86
2022/07/05 06:09:40;;;;;;;;;;;;;;;;;;5002879;28;19924;-87
2022/07/05 06:12:05;;;;;;;;;;;;;;;;;;5000185;28;19914;-87
2022/07/05 06:14:30;;;;;;;;;;;;;;;;;;4995482;28;20402;-86
2022/07/05 06:16:55;;;;;;;;;;;;;;;;;;4999347;28;19917;-86
2022/07/05 06:19:20;;;;;;;;;;;;;;;;;;4998584;28;19940;-87
2022/07/05 06:21:45;;;;;;;;;;;;;;;;;;4999663;28;19944;-86
2022/07/05 06:24:11;;;;;;;;;;;;;;;;;;5005474;28;19913;-87
2022/07/05 06:26:36;;;;;;;;;;;;;;;;;;5001531;28;19921;-87
2022/07/05 06:29:01;;;;;;;;;;;;;;;;;;5002589;28;20283;-87
2022/07/05 06:31:26;;;;;;;;;;;;;;;;;;4997151;28;19918;-87
2022/07/05 06:33:51;;;;;;;;;;;;;;;;;;5000377;28;20158;-87
2022/07/05 06:36:17;;;;;;;;;;;;;;;;;;4999596;28;19936;-87
2022/07/05 06:38:42;;;;;;;;;;;;;;;;;;4996921;28;19917;-87
2022/07/05 06:41:07;;;;;;;;;;;;;;;;;;5004157;28;19940;-86
2022/07/05 06:43:32;;;;;;;;;;;;;;;;;;4995524;28;19918;-87
2022/07/05 06:45:57;;;;;;;;;;;;;;;;;;4999246;28;20000;-87
2022/07/05 06:48:23;;;;;;;;;;;;;;;;;;4999462;28;19929;-87
2022/07/05 06:50:48;;;;;;;;;;;;;;;;;;4999869;28;20370;-87
2022/07/05 06:53:13;;;;;;;;;;;;;;;;;;5000685;28;19992;-87
2022/07/05 06:55:44;;;;;;;;;;;;;;;;;;4999027;28;19918;-86
2022/07/05 06:58:09;;;;;;;;;;;;;;;;;;5001393;28;19921;-87
2022/07/05 07:00:34;;;;;;;;;;;;;;;;;;4997437;28;19917;-86
2022/07/05 07:02:59;;;;;;;;;;;;;;;;;;5001130;28;19921;-86
2022/07/05 07:05:24;;;;;;;;;;;;;;;;;;4999445;28;19955;-86
2022/07/05 07:10:33;;;;;;;;;;;;;;;;;;5001813;28;20218;-86
2022/07/05 07:12:58;;;;;;;;;;;;;;;;;;4996053;28;19943;-86
2022/07/05 07:15:23;;;;;;;;;;;;;;;;;;4999190;28;20294;-87
2022/07/05 07:17:49;;;;;;;;;;;;;;;;;;5000475;28;19914;-87
2022/07/05 07:20:14;;;;;;;;;;;;;;;;;;4998996;28;19933;-87
2022/07/05 07:22:39;;;;;;;;;;;;;;;;;;5000091;28;19917;-87
2022/07/05 07:25:05;;;;;;;;;;;;;;;;;;5003071;28;19910;-85
2022/07/05 07:27:30;;;;;;;;;;;;;;;;;;5001133;28;19914;-87
2022/07/05 07:29:55;;;;;;;;;;;;;;;;;;5001959;28;19948;-86
2022/07/05 07:32:20;;;;;;;;;;;;;;;;;;5004262;28;19917;-86
2022/07/05 07:34:46;;;;;;;;;;;;;;;;;;5005743;28;19921;-87
2022/07/05 07:37:13;;;;;;;;;;;;;;;;;;5004472;28;20020;-86
2022/07/05 07:39:38;;;;;;;;;;;;;;;;;;5002019;28;19928;-86
2022/07/05 07:42:03;;;;;;;;;;;;;;;;;;5002107;28;20291;-87
2022/07/05 07:44:28;;;;;;;;;;;;;;;;;;5001374;28;19953;-86
2022/07/05 07:46:54;;;;;;;;;;;;;;;;;;5002723;28;20042;-86
2022/07/05 07:49:19;;;;;;;;;;;;;;;;;;5004926;28;19913;-86
2022/07/05 07:51:44;;;;;;;;;;;;;;;;;;5005083;28;19921;-86
2022/07/05 07:54:09;;;;;;;;;;;;;;;;;;5000344;28;19918;-87
2022/07/05 07:56:35;;;;;;;;;;;;;;;;;;5000691;28;19917;-87
2022/07/05 07:59:00;;;;;;;;;;;;;;;;;;5003185;28;19918;-85
2022/07/05 08:01:25;;;;;;;;;;;;;;;;;;4996618;28;20588;-86
2022/07/05 08:03:50;;;;;;;;;;;;;;;;;;5001977;28;19918;-87
2022/07/05 08:06:15;;;;;;;;;;;;;;;;;;5005608;28;20053;-87
2022/07/05 08:08:40;;;;;;;;;;;;;;;;;;4999873;28;19918;-87
2022/07/05 08:11:05;;;;;;;;;;;;;;;;;;5004664;28;19922;-87
2022/07/05 08:13:31;;;;;;;;;;;;;;;;;;4997397;28;20736;-86
2022/07/05 08:15:56;;;;;;;;;;;;;;;;;;5001458;28;19917;-86
2022/07/05 08:23:49;;;;;;;;;;;;;;;;;;5005203;28;19924;-87
2022/07/05 08:26:14;;;;;;;;;;;;;;;;;;5006854;28;19913;-87
2022/07/05 08:28:39;;;;;;;;;;;;;;;;;;5005552;28;19980;-87
2022/07/05 08:31:04;;;;;;;;;;;;;;;;;;5001115;28;19913;-87
2022/07/05 08:33:30;;;;;;;;;;;;;;;;;;5003624;28;19948;-87
2022/07/05 08:35:55;;;;;;;;;;;;;;;;;;5001860;28;19961;-86
2022/07/05 08:38:20;;;;;;;;;;;;;;;;;;5004562;28;19917;-87
2022/07/05 08:40:45;;;;;;;;;;;;;;;;;;4990635;28;20164;-86
2022/07/05 08:43:10;;;;;;;;;;;;;;;;;;4999303;28;20606;-87
2022/07/05 08:45:35;;;;;;;;;;;;;;;;;;4998984;28;19914;-86
2022/07/05 08:48:01;;;;;;;;;;;;;;;;;;4996246;28;19921;-86
2022/07/05 08:50:26;;;;;;;;;;;;;;;;;;4997192;28;19984;-86
2022/07/05 08:52:51;;;;;;;;;;;;;;;;;;4999265;28;19922;-87
2022/07/05 08:55:16;;;;;;;;;;;;;;;;;;5007320;28;20424;-87
2022/07/05 08:57:41;;;;;;;;;;;;;;;;;;5009663;28;19967;-87
2022/07/05 09:00:07;;;;;;;;;;;;;;;;;;5005788;28;20005;-90
2022/07/05 09:02:32;;;;;;;;;;;;;;;;;;5006186;28;19921;-88
2022/07/05 09:04:57;;;;;;;;;;;;;;;;;;5002443;28;19918;-88
2022/07/05 09:07:22;;;;;;;;;;;;;;;;;;4999733;28;19929;-88
2022/07/05 09:09:47;;;;;;;;;;;;;;;;;;5004957;28;20048;-88
2022/07/05 09:12:13;;;;;;;;;;;;;;;;;;5004735;28;19953;-89
2022/07/05 09:14:38;;;;;;;;;;;;;;;;;;5006278;28;19921;-88
2022/07/05 09:17:03;;;;;;;;;;;;;;;;;;5002097;28;19913;-89
2022/07/05 09:19:31;;;;;;;;;;;;;;;;;;5006101;28;19925;-88
2022/07/05 09:21:56;;;;;;;;;;;;;;;;;;5008052;28;19917;-88
2022/07/05 09:24:21;;;;;;;;;;;;;;;;;;5001051;28;19917;-88
2022/07/05 09:26:49;;;;;;;;;;;;;;;;;;4998547;28;19917;-89
2022/07/05 09:29:14;;;;;;;;;;;;;;;;;;4999137;28;19921;-88
2022/07/05 09:31:40;;;;;;;;;;;;;;;;;;5000127;28;19940;-88
2022/07/05 09:34:05;;;;;;;;;;;;;;;;;;4999532;28;19917;-87
2022/07/05 09:36:30;;;;;;;;;;;;;;;;;;5006940;28;20016;-88
2022/07/05 09:38:56;;;;;;;;;;;;;;;;;;5001410;28;20049;-88
2022/07/05 09:41:21;;;;;;;;;;;;;;;;;;5002362;28;19921;-88
2022/07/05 09:43:46;;;;;;;;;;;;;;;;;;5000682;28;19924;-87
2022/07/05 09:46:13;;;;;;;;;;;;;;;;;;4999005;28;20011;-88
2022/07/05 09:48:38;;;;;;;;;;;;;;;;;;5003094;28;21210;-87
2022/07/05 09:51:03;;;;;;;;;;;;;;;;;;5004631;28;19913;-87
2022/07/05 09:53:28;;;;;;;;;;;;;;;;;;5001904;28;19921;-88
2022/07/05 09:55:53;;;;;;;;;;;;;;;;;;5003722;28;20375;-88
2022/07/05 09:58:18;;;;;;;;;;;;;;;;;;5003161;28;19917;-88
2022/07/05 10:00:44;;;;;;;;;;;;;;;;;;5011402;28;19925;-87
2022/07/05 10:03:09;;;;;;;;;;;;;;;;;;5008174;28;19913;-87
2022/07/05 10:05:34;;;;;;;;;;;;;;;;;;5013564;28;20379;-87
2022/07/05 10:07:59;;;;;;;;;;;;;;;;;;5000387;28;19923;-89
2022/07/05 10:10:24;;;;;;;;;;;;;;;;;;5000687;28;19914;-88
2022/07/05 10:12:50;;;;;;;;;;;;;;;;;;4992065;28;20379;-87
2022/07/05 10:15:15;;;;;;;;;;;;;;;;;;5000388;28;20404;-87
2022/07/05 10:17:40;;;;;;;;;;;;;;;;;;5003280;28;20371;-88
2022/07/05 10:20:05;;;;;;;;;;;;;;;;;;4999390;28;19972;-87
2022/07/05 10:22:31;;;;;;;;;;;;;;;;;;5007877;28;20282;-87
2022/07/05 10:24:56;;;;;;;;;;;;;;;;;;5012288;28;19913;-88
2022/07/05 10:27:21;;;;;;;;;;;;;;;;;;4995214;28;19979;-88
2022/07/05 10:29:46;;;;;;;;;;;;;;;;;;5000248;28;20025;-88
2022/07/05 10:32:11;;;;;;;;;;;;;;;;;;5003763;28;20409;-88
2022/07/05 10:34:37;;;;;;;;;;;;;;;;;;5002823;28;19925;-87
2022/07/05 10:37:02;;;;;;;;;;;;;;;;;;5004498;28;19992;-88
2022/07/05 10:39:27;;;;;;;;;;;;;;;;;;5009568;28;19928;-87
2022/07/05 10:41:52;;;;;;;;;;;;;;;;;;5008579;28;19922;-88
2022/07/05 10:44:17;;;;;;;;;;;;;;;;;;5006203;28;19917;-88
2022/07/05 10:46:43;;;;;;;;;;;;;;;;;;5000312;28;19928;-87
2022/07/05 10:49:08;;;;;;;;;;;;;;;;;;5002991;28;19924;-87
2022/07/05 10:51:33;;;;;;;;;;;;;;;;;;5008180;28;19936;-87
2022/07/05 10:53:58;;;;;;;;;;;;;;;;;;5009838;28;19955;-88
2022/07/05 10:56:23;;;;;;;;;;;;;;;;;;5008762;28;19918;-87
2022/07/05 10:58:50;;;;;;;;;;;;;;;;;;5007431;28;19909;-87
2022/07/05 11:01:15;;;;;;;;;;;;;;;;;;5007341;28;19928;-87
2022/07/05 11:03:40;;;;;;;;;;;;;;;;;;5000916;28;19917;-86
2022/07/05 11:06:05;;;;;;;;;;;;;;;;;;5007403;28;19917;-87
2022/07/05 11:08:32;;;;;;;;;;;;;;;;;;5004178;28;20012;-87
2022/07/05 11:10:57;;;;;;;;;;;;;;;;;;5013579;28;19916;-87
2022/07/05 11:13:23;;;;;;;;;;;;;;;;;;5010529;28;19963;-89
2022/07/05 11:20:50;;;;;;;;;;;;;;;;;;4987413;28;19937;-89
2022/07/05 11:23:16;;;;;;;;;;;;;;;;;;4993706;28;19910;-87
2022/07/05 11:25:41;;;;;;;;;;;;;;;;;;4987403;28;20375;-87
2022/07/05 11:28:06;;;;;;;;;;;;;;;;;;4993846;28;19942;-88
2022/07/05 11:30:31;;;;;;;;;;;;;;;;;;4992843;28;19953;-87
2022/07/05 11:32:56;;;;;;;;;;;;;;;;;;4990751;28;20410;-85
2022/07/05 11:35:24;;;;;;;;;;;;;;;;;;4982958;28;19996;-86
2022/07/05 11:37:49;;;;;;;;;;;;;;;;;;4985232;28;19918;-86
2022/07/05 11:40:14;;;;;;;;;;;;;;;;;;4980562;28;19921;-85
2022/07/05 11:42:42;;;;;;;;;;;;;;;;;;4985787;28;19969;-87
2022/07/05 11:45:07;;;;;;;;;;;;;;;;;;4979536;28;20379;-86
2022/07/05 11:47:34;;;;;;;;;;;;;;;;;;4984403;28;19933;-86
2022/07/05 11:50:00;;;;;;;;;;;;;;;;;;4984487;28;19918;-86
2022/07/05 11:52:25;;;;;;;;;;;;;;;;;;4976553;28;19922;-86
2022/07/05 11:54:50;;;;;;;;;;;;;;;;;;4975733;28;20232;-85
2022/07/05 11:57:15;;;;;;;;;;;;;;;;;;4978474;28;20005;-85
2022/07/05 11:59:40;;;;;;;;;;;;;;;;;;4980993;28;20430;-86
2022/07/05 12:02:06;;;;;;;;;;;;;;;;;;4980785;28;19965;-85
2022/07/05 12:04:31;;;;;;;;;;;;;;;;;;4982095;28;20029;-85
2022/07/05 12:06:56;;;;;;;;;;;;;;;;;;4983051;28;19918;-85
2022/07/05 12:09:21;;;;;;;;;;;;;;;;;;4982425;28;20384;-85
2022/07/05 12:14:30;;;;;;;;;;;;;;;;;;4981050;28;20052;-86
2022/07/05 12:16:56;;;;;;;;;;;;;;;;;;4977215;28;20383;-86
2022/07/05 12:19:21;;;;;;;;;;;;;;;;;;4980543;28;19922;-86
2022/07/05 12:21:46;;;;;;;;;;;;;;;;;;4976802;28;20371;-86
2022/07/05 12:24:11;;;;;;;;;;;;;;;;;;4977926;28;20376;-85
2022/07/05 12:26:36;;;;;;;;;;;;;;;;;;4984449;28;19933;-86
2022/07/05 12:29:01;;;;;;;;;;;;;;;;;;4979793;28;19945;-86
2022/07/05 12:31:27;;;;;;;;;;;;;;;;;;4978547;28;20004;-86
2022/07/05 12:33:52;;;;;;;;;;;;;;;;;;4978309;28;19925;-86
2022/07/05 12:36:17;;;;;;;;;;;;;;;;;;4994351;28;19918;-86
2022/07/05 12:38:42;;;;;;;;;;;;;;;;;;4976482;28;20462;-85
2022/07/05 12:41:08;;;;;;;;;;;;;;;;;;4977937;28;19922;-86
2022/07/05 12:43:33;;;;;;;;;;;;;;;;;;4980187;28;19968;-86
2022/07/05 12:45:58;;;;;;;;;;;;;;;;;;4977965;28;19933;-86
2022/07/05 12:48:23;;;;;;;;;;;;;;;;;;4975815;28;19921;-86
2022/07/05 12:50:49;;;;;;;;;;;;;;;;;;4980538;28;19918;-85
2022/07/05 12:58:41;;;;;;;;;;;;;;;;;;4974960;28;19921;-85
2022/07/05 13:01:06;;;;;;;;;;;;;;;;;;4977891;28;19925;-86
2022/07/05 13:03:32;;;;;;;;;;;;;;;;;;4988300;28;19918;-86
2022/07/05 13:05:57;;;;;;;;;;;;;;;;;;4979841;28;20431;-85
2022/07/05 13:08:22;;;;;;;;;;;;;;;;;;4980084;28;19925;-86
2022/07/05 13:10:47;;;;;;;;;;;;;;;;;;4978099;28;19985;-86
2022/07/05 13:13:16;;;;;;;;;;;;;;;;;;4980634;28;19928;-86
2022/07/05 13:15:41;;;;;;;;;;;;;;;;;;4974191;28;19952;-87
2022/07/05 13:18:06;;;;;;;;;;;;;;;;;;4983394;28;19964;-88
2022/07/05 13:20:31;;;;;;;;;;;;;;;;;;4986495;28;19918;-87
2022/07/05 13:22:57;;;;;;;;;;;;;;;;;;4980057;28;19925;-89
2022/07/05 13:25:22;;;;;;;;;;;;;;;;;;4987076;28;20499;-88
2022/07/05 13:27:48;;;;;;;;;;;;;;;;;;4976569;28;19977;-87
2022/07/05 13:30:13;;;;;;;;;;;;;;;;;;4978327;28;19954;-88
2022/07/05 13:32:38;;;;;;;;;;;;;;;;;;4982648;28;19997;-87
2022/07/05 13:35:04;;;;;;;;;;;;;;;;;;4978399;28;19957;-89
2022/07/05 13:37:29;;;;;;;;;;;;;;;;;;4973325;28;20285;-87
2022/07/05 13:39:54;;;;;;;;;;;;;;;;;;4975091;28;19918;-88
2022/07/05 13:42:22;;;;;;;;;;;;;;;;;;4973453;28;19918;-88
2022/07/05 13:44:47;;;;;;;;;;;;;;;;;;4974061;28;19918;-88
2022/07/05 13:47:12;;;;;;;;;;;;;;;;;;4970604;28;19921;-86
2022/07/05 13:49:39;;;;;;;;;;;;;;;;;;4977941;28;19914;-87
2022/07/05 13:52:05;;;;;;;;;;;;;;;;;;4974679;28;19914;-88
2022/07/05 13:54:31;;;;;;;;;;;;;;;;;;4978329;28;19996;-89
2022/07/05 13:56:56;;;;;;;;;;;;;;;;;;4979195;28;20009;-87
2022/07/05 13:59:21;;;;;;;;;;;;;;;;;;4976736;28;19914;-87
2022/07/05 14:01:46;;;;;;;;;;;;;;;;;;4975337;28;19925;-87
2022/07/05 14:04:11;;;;;;;;;;;;;;;;;;4979395;28;19962;-87
2022/07/05 14:06:37;;;;;;;;;;;;;;;;;;4976873;28;19924;-88
2022/07/05 14:09:02;;;;;;;;;;;;;;;;;;4979709;28;20276;-87
2022/07/05 14:11:28;;;;;;;;;;;;;;;;;;4990198;28;19991;-88
2022/07/05 14:13:53;;;;;;;;;;;;;;;;;;4975631;28;19918;-87
2022/07/05 14:16:18;;;;;;;;;;;;;;;;;;4973372;28;19914;-87
2022/07/05 14:18:44;;;;;;;;;;;;;;;;;;4975406;28;20307;-88
2022/07/05 14:21:14;;;;;;;;;;;;;;;;;;4976362;28;20295;-87
2022/07/05 14:23:39;;;;;;;;;;;;;;;;;;4982562;28;19996;-86
2022/07/05 14:26:06;;;;;;;;;;;;;;;;;;4986780;28;20004;-86
2022/07/05 14:28:33;;;;;;;;;;;;;;;;;;4986016;28;19972;-89
2022/07/05 14:30:58;;;;;;;;;;;;;;;;;;4976027;28;19914;-87
2022/07/05 14:33:23;;;;;;;;;;;;;;;;;;4981141;28;20291;-87
2022/07/05 14:35:49;;;;;;;;;;;;;;;;;;4984035;28;20292;-87
2022/07/05 14:38:14;;;;;;;;;;;;;;;;;;4977341;28;19921;-89
2022/07/05 14:40:39;;;;;;;;;;;;;;;;;;4982392;28;20004;-89
2022/07/05 14:43:06;;;;;;;;;;;;;;;;;;4979182;28;20194;-89
2022/07/05 14:45:31;;;;;;;;;;;;;;;;;;4976296;28;20232;-87
2022/07/05 14:47:57;;;;;;;;;;;;;;;;;;4979125;28;19913;-89
2022/07/05 14:50:22;;;;;;;;;;;;;;;;;;4974596;28;19914;-88
2022/07/05 14:52:47;;;;;;;;;;;;;;;;;;4981762;28;19914;-86
2022/07/05 14:55:12;;;;;;;;;;;;;;;;;;4977142;28;19964;-87
2022/07/05 14:57:37;;;;;;;;;;;;;;;;;;4978613;28;20020;-88
2022/07/05 15:00:03;;;;;;;;;;;;;;;;;;4978012;28;19917;-87
2022/07/05 15:02:28;;;;;;;;;;;;;;;;;;4980408;28;20356;-88
2022/07/05 15:04:53;;;;;;;;;;;;;;;;;;4977099;28;19922;-87
2022/07/05 15:07:18;;;;;;;;;;;;;;;;;;4978235;28;19921;-87
2022/07/05 15:09:43;;;;;;;;;;;;;;;;;;4979615;28;19922;-88
2022/07/05 15:12:09;;;;;;;;;;;;;;;;;;4979866;28;19922;-87
2022/07/05 15:14:34;;;;;;;;;;;;;;;;;;4978456;28;19921;-87
2022/07/05 15:16:59;;;;;;;;;;;;;;;;;;4984550;28;20136;-89
2022/07/05 15:19:24;;;;;;;;;;;;;;;;;;4978674;28;20335;-88
2022/07/05 15:21:49;;;;;;;;;;;;;;;;;;4981989;28;19925;-88
2022/07/05 15:24:14;;;;;;;;;;;;;;;;;;4978843;28;19967;-87
2022/07/05 15:26:40;;;;;;;;;;;;;;;;;;4979277;28;19918;-88
2022/07/05 15:29:05;;;;;;;;;;;;;;;;;;4977251;28;19965;-88
2022/07/05 15:31:31;;;;;;;;;;;;;;;;;;4980387;28;19976;-87
2022/07/05 15:33:56;;;;;;;;;;;;;;;;;;4975929;28;19917;-88
2022/07/05 15:36:21;;;;;;;;;;;;;;;;;;4993118;28;20390;-87
2022/07/05 15:38:46;;;;;;;;;;;;;;;;;;4982130;28;19918;-88
2022/07/05 15:41:11;;;;;;;;;;;;;;;;;;4985468;28;20016;-88
2022/07/05 15:43:36;;;;;;;;;;;;;;;;;;4986520;28;19914;-87
2022/07/05 15:46:02;;;;;;;;;;;;;;;;;;4991005;28;19921;-87
2022/07/05 15:48:27;;;;;;;;;;;;;;;;;;4987556;28;20265;-87
2022/07/05 15:50:53;;;;;;;;;;;;;;;;;;4988844;28;19922;-88
2022/07/05 15:53:18;;;;;;;;;;;;;;;;;;4980892;28;20312;-87
2022/07/05 15:55:44;;;;;;;;;;;;;;;;;;4986157;28;19914;-87
2022/07/05 15:58:09;;;;;;;;;;;;;;;;;;4986756;28;19915;-88
2022/07/05 16:00:34;;;;;;;;;;;;;;;;;;4989080;28;19964;-87
2022/07/05 16:02:59;;;;;;;;;;;;;;;;;;4982193;28;20021;-87
2022/07/05 16:05:24;;;;;;;;;;;;;;;;;;4981056;28;19918;-88
2022/07/05 16:07:50;;;;;;;;;;;;;;;;;;4984772;28;19956;-88
2022/07/05 16:10:15;;;;;;;;;;;;;;;;;;4981689;28;20024;-88
2022/07/05 16:12:40;;;;;;;;;;;;;;;;;;4990501;28;20410;-86
2022/07/05 16:15:06;;;;;;;;;;;;;;;;;;4990855;28;19914;-86
2022/07/05 16:17:31;;;;;;;;;;;;;;;;;;4990638;28;19914;-87
2022/07/05 16:19:56;;;;;;;;;;;;;;;;;;4992794;28;19917;-87
2022/07/05 16:22:22;;;;;;;;;;;;;;;;;;4992242;28;20391;-88
2022/07/05 16:24:47;;;;;;;;;;;;;;;;;;4988973;28;20000;-87
2022/07/05 16:27:14;;;;;;;;;;;;;;;;;;4992541;28;19914;-87
2022/07/05 16:29:39;;;;;;;;;;;;;;;;;;4993595;28;19910;-88
2022/07/05 16:32:04;;;;;;;;;;;;;;;;;;4992903;28;19980;-87
2022/07/05 16:34:29;;;;;;;;;;;;;;;;;;4987240;28;19921;-87
2022/07/05 16:36:56;;;;;;;;;;;;;;;;;;4991631;28;19924;-87
2022/07/05 16:39:22;;;;;;;;;;;;;;;;;;4982587;28;19954;-87
2022/07/05 16:41:47;;;;;;;;;;;;;;;;;;4989908;28;19980;-87
2022/07/05 16:44:12;;;;;;;;;;;;;;;;;;4983016;28;19926;-87
2022/07/05 16:46:37;;;;;;;;;;;;;;;;;;4981694;28;20253;-88
2022/07/05 16:49:02;;;;;;;;;;;;;;;;;;4981494;28;20390;-88
2022/07/05 16:51:27;;;;;;;;;;;;;;;;;;4984501;28;20125;-88
2022/07/05 16:53:53;;;;;;;;;;;;;;;;;;4982961;28;19972;-87